Time;durP1;ratioP1;P1;durP2;ratioP2;P2;SDS_P1;SDS_P2;PMS_P1;PMS_P2;Temp;Humidity;BMP_temperature;BMP_pressure;BME280_temperature;BME280_humidity;BME280_pressure;Samples;Min_cycle;Max_cycle;Signal;HPM_P1;HPM_P2
2023/07/16 00:00:09;;;;;;;5.50;3.20;;;21.90;99.90;;;;;;5005443;28;20580;-68
2023/07/16 00:02:35;;;;;;;4.53;2.97;;;21.80;99.90;;;;;;5005574;28;20168;-69
2023/07/16 00:05:01;;;;;;;3.20;2.80;;;21.70;99.90;;;;;;5005494;28;20801;-69
2023/07/16 00:07:27;;;;;;;2.67;2.47;;;21.60;99.90;;;;;;5006734;28;20458;-69
2023/07/16 00:09:52;;;;;;;5.77;3.00;;;21.70;99.90;;;;;;5005377;28;20180;-69
2023/07/16 00:12:18;;;;;;;5.40;2.70;;;21.80;99.90;;;;;;5006020;28;20183;-69
2023/07/16 00:14:43;;;;;;;2.63;2.43;;;21.90;99.90;;;;;;5005035;28;20264;-69
2023/07/16 00:17:09;;;;;;;3.37;2.50;;;22.20;99.90;;;;;;5000155;28;20270;-68
2023/07/16 00:19:35;;;;;;;3.00;2.67;;;22.40;99.90;;;;;;5004715;28;20191;-68
2023/07/16 00:22:00;;;;;;;3.20;2.33;;;22.50;99.90;;;;;;5004588;28;20255;-69
2023/07/16 00:24:26;;;;;;;3.20;2.47;;;22.60;99.90;;;;;;5005261;28;20173;-69
2023/07/16 00:26:52;;;;;;;2.23;2.03;;;22.60;99.90;;;;;;5006174;28;20193;-69
2023/07/16 00:29:18;;;;;;;2.30;2.00;;;22.60;99.90;;;;;;5006223;28;20550;-69
2023/07/16 00:31:43;;;;;;;2.47;1.87;;;22.50;99.90;;;;;;5005984;28;20461;-69
2023/07/16 00:34:09;;;;;;;1.87;1.67;;;22.60;99.90;;;;;;5004751;28;20607;-69
2023/07/16 00:36:35;;;;;;;1.70;1.60;;;22.70;99.90;;;;;;5004659;28;20207;-69
2023/07/16 00:39:00;;;;;;;2.73;2.10;;;22.70;99.90;;;;;;5006341;28;20168;-69
2023/07/16 00:41:26;;;;;;;1.80;1.70;;;22.70;99.90;;;;;;5003509;28;20169;-68
2023/07/16 00:43:54;;;;;;;2.47;2.27;;;22.80;99.90;;;;;;5005460;28;20222;-69
2023/07/16 00:46:19;;;;;;;1.97;1.77;;;22.90;99.90;;;;;;5003864;28;20542;-69
2023/07/16 00:48:45;;;;;;;2.77;2.20;;;22.90;99.90;;;;;;5006573;28;20441;-69
2023/07/16 00:51:12;;;;;;;2.30;2.03;;;22.70;99.90;;;;;;5002627;28;20173;-69
2023/07/16 00:53:41;;;;;;;1.70;1.60;;;22.70;99.90;;;;;;5004348;28;20272;-69
2023/07/16 00:56:08;;;;;;;2.30;2.10;;;22.70;99.90;;;;;;5006739;28;20454;-68
2023/07/16 00:58:34;;;;;;;2.10;1.90;;;22.40;99.90;;;;;;5003514;28;20922;-69
2023/07/16 01:01:00;;;;;;;1.67;1.57;;;22.40;99.90;;;;;;5005646;28;20461;-69
2023/07/16 01:03:26;;;;;;;2.40;2.20;;;22.50;99.90;;;;;;5003443;28;20169;-69
2023/07/16 01:06:02;;;;;;;3.13;2.37;;;22.20;99.90;;;;;;5006312;28;20623;-68
2023/07/16 01:08:36;;;;;;;1.87;1.77;;;22.20;99.90;;;;;;4998867;28;20570;-67
2023/07/16 01:11:02;;;;;;;4.80;1.90;;;22.10;99.90;;;;;;5001614;28;20740;-68
2023/07/16 01:13:29;;;;;;;2.10;1.90;;;22.20;99.90;;;;;;5003989;28;20411;-69
2023/07/16 01:15:54;;;;;;;1.93;1.73;;;22.20;99.90;;;;;;5003818;28;20443;-69
2023/07/16 01:18:20;;;;;;;1.67;1.50;;;22.20;99.90;;;;;;5005959;28;20534;-69
2023/07/16 01:20:45;;;;;;;3.10;1.47;;;22.20;99.90;;;;;;5005133;28;20599;-70
2023/07/16 01:23:14;;;;;;;1.87;1.77;;;22.30;99.90;;;;;;5004513;28;20642;-69
2023/07/16 01:25:59;;;;;;;2.13;1.60;;;22.40;99.90;;;;;;5003242;28;20184;-70
2023/07/16 01:28:51;;;;;;;1.40;1.23;;;22.40;99.90;;;;;;5004811;28;20824;-69
2023/07/16 01:31:18;;;;;;;2.23;1.60;;;22.50;99.90;;;;;;4996107;28;20426;-70
2023/07/16 01:33:45;;;;;;;2.20;1.90;;;22.40;99.90;;;;;;5002543;28;20787;-70
2023/07/16 01:36:11;;;;;;;1.97;1.50;;;22.30;99.90;;;;;;5000344;28;20490;-69
2023/07/16 01:38:36;;;;;;;1.83;1.73;;;22.10;99.90;;;;;;5005041;28;20430;-69
2023/07/16 01:41:02;;;;;;;1.70;1.60;;;22.20;99.90;;;;;;5002631;28;20411;-69
2023/07/16 01:43:28;;;;;;;1.93;1.60;;;22.30;99.90;;;;;;5004287;28;20181;-70
2023/07/16 01:45:54;;;;;;;2.10;1.63;;;22.30;99.90;;;;;;5001198;28;20184;-70
2023/07/16 01:48:36;;;;;;;2.07;1.43;;;22.30;99.90;;;;;;5004720;28;20239;-69
2023/07/16 01:51:03;;;;;;;1.50;1.40;;;22.20;99.90;;;;;;4982405;28;20176;-70
2023/07/16 01:53:29;;;;;;;2.03;1.30;;;22.10;99.90;;;;;;5003877;28;20412;-69
2023/07/16 01:55:54;;;;;;;1.30;1.20;;;21.90;99.90;;;;;;5004917;28;20446;-70
2023/07/16 01:58:20;;;;;;;2.00;1.13;;;21.60;99.90;;;;;;5002850;28;20574;-70
2023/07/16 02:00:48;;;;;;;1.60;1.33;;;21.30;99.90;;;;;;5005157;28;20185;-70
2023/07/16 02:03:13;;;;;;;3.60;1.40;;;21.00;99.90;;;;;;5002830;28;20646;-70
2023/07/16 02:05:39;;;;;;;1.90;1.60;;;21.00;99.90;;;;;;5003362;28;20412;-70
2023/07/16 02:08:05;;;;;;;1.50;1.40;;;21.20;99.90;;;;;;5001952;28;20236;-70
2023/07/16 02:10:31;;;;;;;1.70;1.57;;;21.10;99.90;;;;;;5004606;28;20766;-70
2023/07/16 02:12:56;;;;;;;1.93;1.73;;;21.20;99.90;;;;;;5002950;28;20259;-69
2023/07/16 02:15:22;;;;;;;1.70;1.50;;;21.20;99.90;;;;;;5002197;28;20655;-70
2023/07/16 02:17:47;;;;;;;2.23;1.57;;;21.10;99.90;;;;;;5002575;28;20623;-69
2023/07/16 02:20:13;;;;;;;1.63;1.43;;;20.90;99.90;;;;;;5003780;28;20172;-70
2023/07/16 02:22:39;;;;;;;3.47;1.50;;;20.60;99.90;;;;;;5002423;28;20266;-69
2023/07/16 02:25:05;;;;;;;2.43;1.57;;;20.70;99.90;;;;;;5004809;28;20233;-69
2023/07/16 02:27:31;;;;;;;1.70;1.60;;;20.80;99.90;;;;;;5002749;28;20196;-69
2023/07/16 02:29:57;;;;;;;1.47;1.37;;;20.70;99.90;;;;;;5004161;28;20415;-70
2023/07/16 02:32:23;;;;;;;2.60;1.37;;;20.50;99.90;;;;;;5001922;28;20179;-69
2023/07/16 02:34:48;;;;;;;4.40;1.50;;;20.50;99.90;;;;;;5004435;28;20281;-70
2023/07/16 02:37:14;;;;;;;2.97;2.03;;;20.60;99.90;;;;;;4983962;28;20288;-69
2023/07/16 02:39:42;;;;;;;2.43;1.57;;;20.60;99.90;;;;;;5004397;28;20230;-69
2023/07/16 02:42:08;;;;;;;1.67;1.57;;;20.60;99.90;;;;;;5002084;28;20543;-70
2023/07/16 02:44:34;;;;;;;1.93;1.60;;;20.70;99.90;;;;;;5003461;28;20412;-69
2023/07/16 02:46:59;;;;;;;5.13;2.03;;;20.60;99.90;;;;;;5001086;28;20993;-69
2023/07/16 02:49:25;;;;;;;3.47;1.90;;;20.50;99.90;;;;;;5004750;28;20163;-68
2023/07/16 02:51:51;;;;;;;1.83;1.40;;;20.50;99.90;;;;;;5002867;28;20172;-69
2023/07/16 02:54:16;;;;;;;2.23;1.40;;;20.50;99.90;;;;;;5003739;28;20183;-69
2023/07/16 02:56:42;;;;;;;1.67;1.40;;;20.40;99.90;;;;;;5003425;28;20226;-69
2023/07/16 02:59:07;;;;;;;2.17;1.87;;;20.50;99.90;;;;;;5002493;28;20580;-69
2023/07/16 03:01:33;;;;;;;2.70;1.70;;;20.60;99.90;;;;;;5003064;28;20179;-69
2023/07/16 03:03:59;;;;;;;1.63;1.40;;;20.70;99.90;;;;;;5004707;28;20222;-68
2023/07/16 03:06:24;;;;;;;2.13;1.40;;;20.80;99.90;;;;;;5000694;28;20287;-69
2023/07/16 03:08:50;;;;;;;3.10;1.67;;;20.80;99.90;;;;;;5002870;28;20211;-69
2023/07/16 03:11:15;;;;;;;1.83;1.17;;;20.90;99.90;;;;;;5001772;28;20177;-69
2023/07/16 03:13:41;;;;;;;1.90;1.70;;;20.90;99.90;;;;;;5004381;28;20184;-69
2023/07/16 03:16:06;;;;;;;2.10;1.70;;;20.70;99.90;;;;;;5000811;28;20193;-69
2023/07/16 03:18:32;;;;;;;2.60;1.80;;;20.60;99.90;;;;;;5004156;28;20270;-69
2023/07/16 03:20:58;;;;;;;2.77;1.70;;;20.70;99.90;;;;;;5001456;28;20204;-69
2023/07/16 03:23:24;;;;;;;4.40;1.97;;;20.70;99.90;;;;;;5003905;28;20447;-69
2023/07/16 03:25:51;;;;;;;2.30;1.70;;;20.60;99.90;;;;;;5006696;28;20180;-69
2023/07/16 03:28:16;;;;;;;3.17;1.63;;;20.60;99.90;;;;;;5005270;28;20431;-69
2023/07/16 03:30:50;;;;;;;2.80;1.50;;;20.50;99.90;;;;;;4989726;28;20788;-69
2023/07/16 03:33:16;;;;;;;2.47;2.07;;;20.40;99.90;;;;;;5006035;28;20279;-69
2023/07/16 03:35:46;;;;;;;2.10;1.53;;;20.40;99.90;;;;;;5005347;28;20447;-69
2023/07/16 03:38:12;;;;;;;2.67;2.00;;;20.30;99.90;;;;;;5001833;28;20482;-69
2023/07/16 03:40:38;;;;;;;1.70;1.47;;;20.10;99.90;;;;;;5002177;28;20487;-69
2023/07/16 03:43:04;;;;;;;2.07;1.87;;;20.00;99.90;;;;;;5006064;28;20494;-69
2023/07/16 03:45:29;;;;;;;3.20;1.90;;;20.10;99.90;;;;;;5005418;28;20518;-69
2023/07/16 03:47:55;;;;;;;5.80;2.00;;;20.00;99.90;;;;;;5005471;28;20431;-69
2023/07/16 03:50:20;;;;;;;2.67;2.07;;;20.10;99.90;;;;;;5006828;28;20177;-69
2023/07/16 03:52:47;;;;;;;4.07;2.03;;;20.00;99.90;;;;;;5005640;28;20200;-69
2023/07/16 03:55:13;;;;;;;3.20;2.00;;;20.10;99.90;;;;;;5007009;28;20192;-69
2023/07/16 03:57:38;;;;;;;3.77;2.27;;;20.10;99.90;;;;;;5005568;28;20434;-69
2023/07/16 04:00:09;;;;;;;3.03;1.83;;;20.00;99.90;;;;;;5006404;28;20627;-69
2023/07/16 04:02:35;;;;;;;2.33;1.80;;;19.90;99.90;;;;;;5005068;28;20160;-69
2023/07/16 04:05:01;;;;;;;3.43;1.60;;;20.00;99.90;;;;;;4973830;28;20469;-69
2023/07/16 04:07:26;;;;;;;3.63;1.90;;;20.00;99.90;;;;;;5003034;28;20456;-66
2023/07/16 04:09:52;;;;;;;2.97;2.10;;;20.10;99.90;;;;;;5006350;28;20197;-68
2023/07/16 04:12:18;;;;;;;3.87;1.90;;;20.10;99.90;;;;;;5004614;28;20169;-70
2023/07/16 04:14:43;;;;;;;2.40;1.70;;;20.20;99.90;;;;;;5007017;28;20183;-68
2023/07/16 04:17:09;;;;;;;1.63;1.53;;;20.30;99.90;;;;;;5004183;28;20188;-68
2023/07/16 04:19:35;;;;;;;2.03;1.83;;;20.20;99.90;;;;;;5007101;28;20172;-68
2023/07/16 04:22:00;;;;;;;5.00;1.90;;;20.20;99.90;;;;;;5004366;28;20179;-68
2023/07/16 04:24:29;;;;;;;3.33;2.00;;;20.10;99.90;;;;;;5004583;28;20643;-68
2023/07/16 04:26:54;;;;;;;2.10;1.77;;;19.90;99.90;;;;;;5005319;28;20203;-68
2023/07/16 04:29:20;;;;;;;2.20;2.00;;;19.90;99.90;;;;;;5004386;28;20411;-67
2023/07/16 04:31:46;;;;;;;2.03;1.73;;;19.80;99.90;;;;;;5006280;28;20490;-69
2023/07/16 04:34:11;;;;;;;4.13;1.90;;;19.60;99.90;;;;;;5006036;28;20168;-69
2023/07/16 04:36:38;;;;;;;2.93;1.70;;;19.70;99.90;;;;;;5002522;28;20243;-68
2023/07/16 04:39:04;;;;;;;2.70;1.97;;;19.80;99.90;;;;;;5003731;28;20627;-69
2023/07/16 04:41:30;;;;;;;2.83;2.13;;;19.70;99.90;;;;;;5005000;28;20404;-68
2023/07/16 04:43:56;;;;;;;5.00;2.30;;;19.80;99.90;;;;;;5006625;28;20638;-68
2023/07/16 04:46:21;;;;;;;6.07;2.07;;;19.80;99.90;;;;;;5003784;28;20195;-68
2023/07/16 04:48:47;;;;;;;4.40;2.43;;;19.80;99.90;;;;;;5005069;28;20623;-70
2023/07/16 04:51:12;;;;;;;2.83;1.70;;;19.90;99.90;;;;;;5003617;28;20180;-69
2023/07/16 04:53:38;;;;;;;2.23;2.00;;;19.90;99.90;;;;;;5004441;28;20184;-67
2023/07/16 04:56:04;;;;;;;3.07;1.60;;;19.90;99.90;;;;;;5004778;28;20200;-68
2023/07/16 04:58:30;;;;;;;2.63;1.77;;;20.00;99.90;;;;;;5004116;28;20200;-69
2023/07/16 05:00:56;;;;;;;3.60;2.20;;;20.10;99.90;;;;;;5006477;28;20391;-69
2023/07/16 05:03:21;;;;;;;4.67;2.37;;;20.10;99.90;;;;;;5004281;28;20164;-69
2023/07/16 05:05:47;;;;;;;5.13;1.77;;;20.10;99.90;;;;;;5003625;28;20643;-68
2023/07/16 05:08:13;;;;;;;4.60;1.83;;;20.00;99.90;;;;;;5003075;28;20578;-68
2023/07/16 05:10:38;;;;;;;3.37;2.40;;;20.00;99.90;;;;;;4988120;28;20710;-68
2023/07/16 05:13:04;;;;;;;3.63;2.20;;;19.90;99.90;;;;;;5005088;28;20172;-68
2023/07/16 05:15:31;;;;;;;3.43;2.20;;;20.00;99.90;;;;;;5003253;28;20181;-68
2023/07/16 05:17:57;;;;;;;5.63;2.40;;;20.10;99.90;;;;;;5002555;28;20187;-69
2023/07/16 05:20:23;;;;;;;4.27;2.07;;;20.20;99.90;;;;;;5004344;28;20490;-68
2023/07/16 05:22:50;;;;;;;2.37;1.80;;;20.30;99.90;;;;;;5002314;28;20466;-68
2023/07/16 05:25:16;;;;;;;3.47;1.90;;;20.40;99.90;;;;;;5002841;28;20511;-69
2023/07/16 05:27:41;;;;;;;4.50;2.27;;;20.50;99.90;;;;;;5005992;28;20455;-69
2023/07/16 05:30:07;;;;;;;2.60;1.93;;;20.50;99.90;;;;;;5003630;28;20176;-69
2023/07/16 05:32:33;;;;;;;3.20;1.97;;;20.50;99.90;;;;;;4988337;28;20164;-69
2023/07/16 05:34:59;;;;;;;2.77;1.93;;;20.50;99.90;;;;;;5002987;28;20446;-69
2023/07/16 05:37:26;;;;;;;2.33;1.80;;;20.50;99.90;;;;;;5002757;28;20266;-69
2023/07/16 05:39:52;;;;;;;4.33;2.53;;;20.50;99.90;;;;;;5004829;28;20169;-70
2023/07/16 05:42:17;;;;;;;2.47;1.50;;;20.50;99.90;;;;;;5005647;28;20406;-69
2023/07/16 05:44:44;;;;;;;5.00;1.90;;;20.50;99.90;;;;;;5003635;28;20168;-69
2023/07/16 05:47:10;;;;;;;3.53;2.10;;;20.60;99.90;;;;;;5004495;28;20663;-69
2023/07/16 05:49:35;;;;;;;2.97;1.93;;;20.80;99.90;;;;;;5002640;28;20400;-69
2023/07/16 05:52:01;;;;;;;3.10;2.13;;;20.80;99.90;;;;;;5004847;28;20192;-69
2023/07/16 05:54:27;;;;;;;3.50;2.00;;;21.00;99.90;;;;;;5000889;28;20179;-69
2023/07/16 05:56:53;;;;;;;2.83;1.90;;;20.90;99.90;;;;;;5005375;28;20208;-69
2023/07/16 05:59:18;;;;;;;3.60;1.90;;;20.90;99.90;;;;;;5004893;28;20227;-69
2023/07/16 06:01:44;;;;;;;2.70;1.77;;;20.90;99.90;;;;;;5004148;28;20405;-69
2023/07/16 06:04:10;;;;;;;1.87;1.53;;;21.00;99.90;;;;;;5002429;28;20631;-69
2023/07/16 06:06:35;;;;;;;3.00;1.80;;;21.20;99.90;;;;;;5005787;28;20775;-69
2023/07/16 06:09:01;;;;;;;4.87;1.93;;;21.40;99.90;;;;;;5003322;28;20173;-69
2023/07/16 06:11:27;;;;;;;4.40;2.00;;;21.40;99.90;;;;;;5005498;28;20180;-68
2023/07/16 06:13:55;;;;;;;3.83;1.50;;;21.40;99.90;;;;;;5026608;22;20208;-68
2023/07/16 06:16:21;;;;;;;4.47;2.00;;;21.50;99.90;;;;;;5002691;28;20184;-68
2023/07/16 06:18:46;;;;;;;3.67;2.00;;;21.30;99.90;;;;;;5003868;28;20438;-68
2023/07/16 06:21:12;;;;;;;6.47;1.93;;;21.20;99.90;;;;;;5001818;28;20702;-69
2023/07/16 06:23:38;;;;;;;2.23;1.83;;;21.20;99.90;;;;;;5003203;28;20188;-68
2023/07/16 06:26:04;;;;;;;2.30;1.73;;;21.30;99.90;;;;;;5002249;28;20198;-68
2023/07/16 06:28:29;;;;;;;3.53;1.90;;;21.20;99.90;;;;;;5001709;28;20749;-68
2023/07/16 06:30:55;;;;;;;8.80;2.70;;;21.00;99.90;;;;;;5004188;28;20180;-69
2023/07/16 06:33:20;;;;;;;4.13;1.80;;;21.00;99.90;;;;;;5003024;28;20178;-69
2023/07/16 06:35:47;;;;;;;3.03;1.73;;;21.20;99.90;;;;;;4984000;28;20195;-69
2023/07/16 06:38:14;;;;;;;2.13;1.73;;;21.40;99.90;;;;;;5003032;28;20164;-68
2023/07/16 06:40:45;;;;;;;4.13;1.80;;;21.50;99.90;;;;;;5002125;28;20403;-68
2023/07/16 06:43:11;;;;;;;4.13;2.40;;;21.70;99.90;;;;;;5002877;28;20404;-69
2023/07/16 06:45:36;;;;;;;2.60;1.50;;;21.90;99.90;;;;;;5001833;28;20443;-68
2023/07/16 06:48:02;;;;;;;3.37;1.73;;;22.10;99.90;;;;;;5004365;28;20168;-68
2023/07/16 06:50:27;;;;;;;2.77;2.07;;;22.00;99.90;;;;;;5002680;28;20664;-68
2023/07/16 06:52:53;;;;;;;2.57;1.77;;;22.10;99.90;;;;;;5001669;28;20173;-69
2023/07/16 06:55:18;;;;;;;3.13;1.70;;;22.30;99.90;;;;;;5001139;28;20289;-69
2023/07/16 06:57:44;;;;;;;3.87;2.03;;;22.30;99.90;;;;;;5003280;28;20173;-68
2023/07/16 07:00:13;;;;;;;3.10;1.77;;;22.30;99.90;;;;;;5007340;28;20200;-70
2023/07/16 07:02:38;;;;;;;2.47;1.43;;;22.50;99.90;;;;;;5005250;28;20243;-68
2023/07/16 07:05:04;;;;;;;5.53;1.93;;;22.40;99.90;;;;;;5006142;28;20848;-68
2023/07/16 07:07:30;;;;;;;2.80;1.70;;;22.40;99.90;;;;;;5006380;28;20647;-68
2023/07/16 07:09:55;;;;;;;2.30;1.63;;;22.30;99.90;;;;;;5007577;28;20226;-69
2023/07/16 07:12:21;;;;;;;3.17;1.63;;;21.70;99.90;;;;;;5005127;28;20176;-67
2023/07/16 07:14:47;;;;;;;2.60;1.97;;;21.80;99.90;;;;;;5007191;28;20211;-67
2023/07/16 07:17:13;;;;;;;4.83;1.80;;;22.00;99.90;;;;;;5005519;28;20168;-68
2023/07/16 07:19:39;;;;;;;2.03;1.50;;;22.00;99.90;;;;;;5007794;28;20901;-69
2023/07/16 07:22:04;;;;;;;3.70;1.90;;;21.60;99.90;;;;;;5005882;28;20168;-67
2023/07/16 07:24:30;;;;;;;2.97;1.63;;;21.60;99.90;;;;;;5003744;28;20671;-68
2023/07/16 07:26:55;;;;;;;2.40;2.10;;;21.50;99.90;;;;;;5008259;28;20207;-69
2023/07/16 07:29:21;;;;;;;6.50;1.80;;;21.60;99.90;;;;;;5005807;28;20168;-70
2023/07/16 07:31:46;;;;;;;4.07;2.20;;;21.80;99.90;;;;;;5005853;28;20168;-68
2023/07/16 07:34:12;;;;;;;3.27;1.70;;;22.00;99.90;;;;;;5004500;28;20220;-69
2023/07/16 07:36:38;;;;;;;3.43;2.07;;;21.90;99.90;;;;;;5007240;28;20223;-68
2023/07/16 07:39:03;;;;;;;2.60;1.57;;;22.00;99.90;;;;;;5003929;28;20172;-68
2023/07/16 07:41:29;;;;;;;3.83;2.00;;;22.00;99.90;;;;;;5004578;28;20165;-69
2023/07/16 07:43:54;;;;;;;4.47;2.10;;;22.30;99.90;;;;;;5007023;28;20191;-69
2023/07/16 07:46:20;;;;;;;5.30;1.97;;;22.50;99.90;;;;;;5005682;28;20652;-69
2023/07/16 07:48:45;;;;;;;5.07;1.90;;;22.50;99.90;;;;;;4989612;28;20176;-69
2023/07/16 07:51:11;;;;;;;3.93;1.90;;;23.00;99.90;;;;;;5004534;28;20165;-68
2023/07/16 07:53:37;;;;;;;4.33;1.67;;;22.90;99.90;;;;;;5007312;28;20191;-69
2023/07/16 07:56:03;;;;;;;4.27;1.93;;;22.70;99.90;;;;;;5004269;28;20983;-68
2023/07/16 07:58:28;;;;;;;4.17;2.53;;;22.70;99.90;;;;;;5004382;28;20534;-69
2023/07/16 08:00:54;;;;;;;3.77;1.90;;;22.50;99.90;;;;;;5006030;28;20167;-68
2023/07/16 08:03:19;;;;;;;1.63;1.40;;;22.50;99.90;;;;;;5006633;28;20175;-68
2023/07/16 08:05:49;;;;;;;5.40;1.80;;;22.20;99.90;;;;;;5004912;28;20183;-68
2023/07/16 08:08:14;;;;;;;3.33;2.07;;;22.10;99.90;;;;;;5003813;28;20223;-68
2023/07/16 08:10:40;;;;;;;3.53;1.77;;;22.60;99.90;;;;;;5003789;28;20466;-68
2023/07/16 08:13:06;;;;;;;3.50;2.00;;;22.80;99.90;;;;;;5006841;28;20172;-69
2023/07/16 08:15:31;;;;;;;3.60;1.80;;;23.00;99.90;;;;;;5005543;28;20455;-67
2023/07/16 08:17:59;;;;;;;3.10;2.00;;;23.20;99.90;;;;;;5004897;28;20160;-69
2023/07/16 08:20:25;;;;;;;4.63;1.80;;;23.40;99.90;;;;;;5004543;28;20196;-69
2023/07/16 08:22:51;;;;;;;2.70;2.00;;;23.20;99.90;;;;;;5005882;28;20406;-69
2023/07/16 08:25:16;;;;;;;2.73;1.60;;;23.30;99.90;;;;;;5003607;28;20434;-68
2023/07/16 08:27:42;;;;;;;2.63;1.90;;;23.40;99.90;;;;;;5004695;28;20176;-69
2023/07/16 08:30:08;;;;;;;4.67;2.10;;;23.10;99.90;;;;;;5006464;28;20246;-68
2023/07/16 08:32:34;;;;;;;2.27;1.97;;;23.30;99.90;;;;;;5004058;28;20171;-68
2023/07/16 08:34:59;;;;;;;4.63;2.10;;;23.60;99.90;;;;;;5005238;28;20462;-70
2023/07/16 08:37:25;;;;;;;3.07;2.10;;;23.90;99.90;;;;;;5003813;28;20252;-68
2023/07/16 08:39:53;;;;;;;4.90;2.00;;;23.80;99.90;;;;;;5006039;28;20534;-69
2023/07/16 08:42:19;;;;;;;3.87;1.70;;;23.70;99.90;;;;;;5004628;28;20262;-68
2023/07/16 08:44:45;;;;;;;2.27;1.80;;;23.60;99.90;;;;;;5006520;28;20778;-68
2023/07/16 08:47:10;;;;;;;2.30;1.70;;;23.60;99.90;;;;;;5003365;28;20400;-69
2023/07/16 08:49:37;;;;;;;5.40;2.03;;;23.70;99.90;;;;;;5005442;28;20165;-68
2023/07/16 08:52:05;;;;;;;3.57;1.90;;;23.90;99.90;;;;;;5004894;28;20168;-68
2023/07/16 08:54:30;;;;;;;2.70;1.80;;;24.10;99.90;;;;;;5001780;28;20930;-68
2023/07/16 08:56:56;;;;;;;3.87;2.20;;;24.00;99.90;;;;;;5005903;28;20493;-68
2023/07/16 08:59:22;;;;;;;3.63;2.00;;;24.00;99.90;;;;;;5004231;28;20539;-68
2023/07/16 09:01:49;;;;;;;3.50;2.00;;;23.60;99.90;;;;;;5003751;28;20518;-68
2023/07/16 09:04:16;;;;;;;2.10;1.70;;;23.80;99.90;;;;;;5004367;28;21044;-68
2023/07/16 09:06:42;;;;;;;3.97;2.00;;;23.90;99.90;;;;;;5005183;28;20223;-68
2023/07/16 09:09:07;;;;;;;3.10;1.80;;;24.10;99.90;;;;;;5004189;28;20415;-69
2023/07/16 09:11:33;;;;;;;2.80;1.57;;;24.30;99.90;;;;;;5002942;28;20532;-69
2023/07/16 09:14:01;;;;;;;2.10;1.60;;;24.40;99.90;;;;;;5004880;28;20212;-69
2023/07/16 09:16:32;;;;;;;3.03;1.60;;;24.30;99.90;;;;;;5003826;28;20502;-68
2023/07/16 09:19:05;;;;;;;3.17;1.90;;;24.40;99.90;;;;;;5003718;28;20456;-68
2023/07/16 09:21:33;;;;;;;3.40;2.00;;;24.20;99.90;;;;;;5002428;28;20813;-70
2023/07/16 09:23:59;;;;;;;3.13;1.70;;;24.30;99.90;;;;;;5001844;28;20447;-69
2023/07/16 09:26:25;;;;;;;9.13;2.70;;;24.50;99.90;;;;;;5002444;28;20427;-68
2023/07/16 09:28:50;;;;;;;5.00;2.17;;;24.30;99.90;;;;;;5003321;28;20172;-68
2023/07/16 09:31:16;;;;;;;2.63;2.13;;;24.10;99.90;;;;;;5002483;28;20188;-68
2023/07/16 09:33:41;;;;;;;3.10;1.70;;;24.30;99.90;;;;;;5003718;28;20272;-69
2023/07/16 09:36:07;;;;;;;3.97;1.60;;;24.60;99.90;;;;;;5000641;28;20199;-69
2023/07/16 09:38:34;;;;;;;3.90;2.03;;;25.00;99.90;;;;;;5001911;28;20164;-69
2023/07/16 09:41:02;;;;;;;4.10;1.80;;;25.20;98.80;;;;;;5004051;28;20244;-68
2023/07/16 09:43:28;;;;;;;2.60;1.37;;;25.60;99.00;;;;;;5001831;28;20407;-68
2023/07/16 09:45:54;;;;;;;2.83;1.80;;;25.50;99.30;;;;;;5005225;28;20426;-69
2023/07/16 09:48:19;;;;;;;2.20;1.50;;;25.30;98.00;;;;;;5001557;28;20239;-69
2023/07/16 09:50:51;;;;;;;2.23;1.63;;;24.90;98.00;;;;;;5004145;28;20178;-71
2023/07/16 09:53:19;;;;;;;3.10;1.70;;;24.70;98.30;;;;;;5002081;28;20267;-69
2023/07/16 09:55:47;;;;;;;3.13;1.80;;;24.80;97.50;;;;;;5000598;28;20543;-69
2023/07/16 09:58:14;;;;;;;2.53;1.80;;;25.00;98.30;;;;;;5003760;28;20935;-68
2023/07/16 10:00:41;;;;;;;3.70;1.90;;;25.30;98.00;;;;;;5001491;28;20780;-69
2023/07/16 10:03:08;;;;;;;2.03;1.80;;;25.50;97.80;;;;;;5003549;28;20404;-69
2023/07/16 10:05:37;;;;;;;2.97;2.03;;;25.40;97.40;;;;;;5002625;28;20590;-69
2023/07/16 10:08:02;;;;;;;2.27;1.57;;;25.40;97.60;;;;;;5003720;28;20794;-68
2023/07/16 10:10:49;;;;;;;3.23;2.00;;;25.40;97.10;;;;;;5000989;28;20419;-69
2023/07/16 10:15:53;;;;;;;3.47;1.87;;;25.80;97.10;;;;;;5090190;27;20574;-69
2023/07/16 10:18:27;;;;;;;3.10;1.80;;;25.60;96.80;;;;;;5090479;28;20395;-69
2023/07/16 10:20:53;;;;;;;3.37;1.50;;;25.70;96.40;;;;;;5086562;28;20407;-70
2023/07/16 10:23:19;;;;;;;3.87;1.80;;;25.40;97.00;;;;;;5089423;28;20476;-69
2023/07/16 10:26:05;;;;;;;2.97;2.17;;;25.70;96.70;;;;;;5089292;28;20173;-69
2023/07/16 10:28:31;;;;;;;3.93;2.20;;;26.00;98.30;;;;;;5090213;28;20384;-68
2023/07/16 10:30:57;;;;;;;2.90;1.90;;;26.20;95.40;;;;;;5089869;28;20415;-68
2023/07/16 10:33:22;;;;;;;1.90;1.70;;;26.20;95.40;;;;;;5089892;28;20427;-68
2023/07/16 10:35:48;;;;;;;2.47;1.80;;;26.30;95.60;;;;;;5089692;28;20193;-69
2023/07/16 10:38:14;;;;;;;3.77;2.07;;;26.40;95.60;;;;;;5089698;28;20165;-69
2023/07/16 10:40:44;;;;;;;2.90;1.90;;;26.30;95.60;;;;;;5089321;28;20170;-69
2023/07/16 10:43:10;;;;;;;3.60;1.63;;;26.00;94.70;;;;;;5089717;28;20154;-69
2023/07/16 10:45:35;;;;;;;3.97;2.10;;;25.90;95.20;;;;;;5089763;28;20541;-69
2023/07/16 10:48:01;;;;;;;3.50;2.10;;;25.70;96.80;;;;;;5089866;28;20671;-69
2023/07/16 10:50:26;;;;;;;2.80;2.00;;;26.00;97.00;;;;;;5089390;28;20184;-69
2023/07/16 10:52:56;;;;;;;4.60;1.60;;;26.40;95.70;;;;;;5089777;28;20165;-69
2023/07/16 10:55:22;;;;;;;3.20;1.60;;;26.00;95.20;;;;;;5088642;28;20201;-70
2023/07/16 10:57:49;;;;;;;2.43;2.10;;;25.80;95.20;;;;;;5089486;28;20415;-68
2023/07/16 11:00:15;;;;;;;3.23;2.10;;;25.70;94.90;;;;;;5089713;28;20411;-69
2023/07/16 11:02:43;;;;;;;2.80;1.90;;;26.20;95.30;;;;;;5089583;28;20495;-68
2023/07/16 11:05:12;;;;;;;2.57;1.70;;;26.50;94.40;;;;;;5089204;28;20428;-69
2023/07/16 11:07:37;;;;;;;2.47;1.87;;;26.50;93.70;;;;;;5089430;28;20827;-68
2023/07/16 11:10:03;;;;;;;1.97;1.77;;;26.70;92.70;;;;;;5088767;28;20400;-68
2023/07/16 11:12:29;;;;;;;2.30;2.10;;;26.90;93.80;;;;;;5089106;28;20181;-68
2023/07/16 11:14:56;;;;;;;2.80;2.10;;;27.40;92.50;;;;;;5088692;28;20213;-68
2023/07/16 11:17:24;;;;;;;3.93;1.87;;;27.60;91.20;;;;;;5089104;28;20532;-68
2023/07/16 11:19:51;;;;;;;3.23;2.03;;;27.60;92.20;;;;;;5089286;28;20404;-68
2023/07/16 11:22:17;;;;;;;3.30;2.10;;;27.50;91.00;;;;;;5089044;28;20981;-68
2023/07/16 11:24:51;;;;;;;2.20;1.97;;;27.90;91.70;;;;;;5087478;28;20534;-69
2023/07/16 11:27:31;;;;;;;3.00;2.00;;;27.80;90.70;;;;;;5075185;28;20392;-68
2023/07/16 11:29:59;;;;;;;5.03;2.07;;;27.90;90.40;;;;;;5075182;28;20936;-68
2023/07/16 11:32:34;;;;;;;2.87;1.70;;;28.00;90.60;;;;;;5075091;28;20882;-69
2023/07/16 11:35:04;;;;;;;2.00;1.70;;;28.10;91.80;;;;;;5075050;28;20496;-68
2023/07/16 11:37:31;;;;;;;2.63;2.30;;;28.00;89.30;;;;;;5073248;28;20419;-69
2023/07/16 11:39:58;;;;;;;1.73;1.50;;;28.40;88.90;;;;;;5074434;28;20404;-69
2023/07/16 11:42:28;;;;;;;3.10;2.20;;;28.20;87.80;;;;;;5073722;28;20400;-68
2023/07/16 11:44:55;;;;;;;1.97;1.80;;;28.50;88.00;;;;;;5075041;28;20901;-68
2023/07/16 11:47:20;;;;;;;2.10;1.70;;;28.00;88.50;;;;;;5075249;28;20771;-69
2023/07/16 11:49:47;;;;;;;3.43;2.10;;;29.00;88.50;;;;;;5074798;28;20411;-68
2023/07/16 11:52:13;;;;;;;3.77;2.10;;;30.70;82.30;;;;;;5074603;28;20176;-69
2023/07/16 11:54:38;;;;;;;4.10;1.87;;;30.60;80.90;;;;;;5072453;28;20444;-69
2023/07/16 11:57:04;;;;;;;2.63;1.60;;;32.20;79.40;;;;;;5070769;28;20180;-69
2023/07/16 11:59:29;;;;;;;2.77;1.80;;;31.50;75.10;;;;;;5074295;28;20170;-68
2023/07/16 12:01:55;;;;;;;2.20;1.80;;;32.20;75.70;;;;;;5074554;28;20517;-68
2023/07/16 12:04:21;;;;;;;1.93;1.80;;;33.20;70.10;;;;;;5074627;28;20718;-69
2023/07/16 12:06:46;;;;;;;2.27;1.93;;;33.40;67.70;;;;;;5074431;28;20231;-69
2023/07/16 12:09:12;;;;;;;2.43;2.10;;;34.50;64.60;;;;;;5074289;28;20170;-68
2023/07/16 12:11:37;;;;;;;4.13;1.90;;;34.70;63.20;;;;;;5074880;28;20652;-69
2023/07/16 12:14:04;;;;;;;2.50;1.50;;;34.70;63.60;;;;;;5097472;22;20585;-69
2023/07/16 12:16:30;;;;;;;2.47;2.00;;;35.20;61.90;;;;;;5065447;28;20170;-69
2023/07/16 12:18:56;;;;;;;2.27;1.70;;;34.00;59.80;;;;;;5066180;28;20415;-69
2023/07/16 12:21:22;;;;;;;2.30;1.63;;;33.80;60.90;;;;;;5063792;28;20404;-70
2023/07/16 12:23:47;;;;;;;2.60;1.90;;;34.30;59.00;;;;;;5069381;28;20221;-69
2023/07/16 12:26:14;;;;;;;2.53;1.70;;;34.30;60.90;;;;;;5085456;28;20177;-70
2023/07/16 12:28:39;;;;;;;2.07;1.63;;;34.90;59.60;;;;;;5083300;28;20292;-70
2023/07/16 12:31:05;;;;;;;2.03;1.63;;;34.70;57.30;;;;;;5085133;28;20483;-71
2023/07/16 12:33:31;;;;;;;3.10;2.00;;;35.60;57.70;;;;;;5085791;28;20727;-70
2023/07/16 12:35:56;;;;;;;2.00;1.77;;;35.40;56.70;;;;;;5086097;28;20165;-70
2023/07/16 12:38:22;;;;;;;2.60;2.20;;;34.70;57.40;;;;;;5082704;28;20252;-70
2023/07/16 12:40:48;;;;;;;3.43;2.00;;;34.80;56.40;;;;;;5083291;28;20181;-68
2023/07/16 12:43:14;;;;;;;2.37;1.93;;;35.90;57.70;;;;;;5086002;28;20172;-70
2023/07/16 12:45:39;;;;;;;3.90;2.37;;;35.40;54.90;;;;;;5084486;28;20220;-70